sensor_id;sensor_type;location;lat;lon;timestamp;P1;durP1;ratioP1;P2;durP2;ratioP2
297;SDS011;133;49.626;9.680;2023-07-30T00:02:15;5.47;;;3.83;;
297;SDS011;133;49.626;9.680;2023-07-30T00:04:41;4.40;;;3.90;;
297;SDS011;133;49.626;9.680;2023-07-30T00:07:07;5.90;;;4.07;;
297;SDS011;133;49.626;9.680;2023-07-30T00:09:33;4.83;;;3.40;;
297;SDS011;133;49.626;9.680;2023-07-30T00:11:58;2.70;;;2.30;;
297;SDS011;133;49.626;9.680;2023-07-30T00:14:24;5.30;;;3.40;;
297;SDS011;133;49.626;9.680;2023-07-30T00:16:49;3.77;;;2.73;;
297;SDS011;133;49.626;9.680;2023-07-30T00:19:15;2.70;;;2.50;;
297;SDS011;133;49.626;9.680;2023-07-30T00:21:41;6.10;;;2.60;;
297;SDS011;133;49.626;9.680;2023-07-30T00:24:11;2.90;;;2.63;;
297;SDS011;133;49.626;9.680;2023-07-30T00:26:36;2.37;;;2.17;;
297;SDS011;133;49.626;9.680;2023-07-30T00:29:03;4.37;;;2.67;;
297;SDS011;133;49.626;9.680;2023-07-30T00:31:29;4.00;;;2.30;;
297;SDS011;133;49.626;9.680;2023-07-30T00:33:54;3.00;;;2.37;;
297;SDS011;133;49.626;9.680;2023-07-30T00:36:20;6.87;;;2.50;;
297;SDS011;133;49.626;9.680;2023-07-30T00:38:46;5.23;;;2.63;;
297;SDS011;133;49.626;9.680;2023-07-30T00:41:11;2.63;;;2.40;;
297;SDS011;133;49.626;9.680;2023-07-30T00:43:37;4.47;;;3.30;;
297;SDS011;133;49.626;9.680;2023-07-30T00:46:02;2.53;;;2.33;;
297;SDS011;133;49.626;9.680;2023-07-30T00:48:28;3.10;;;2.37;;
297;SDS011;133;49.626;9.680;2023-07-30T00:50:55;3.13;;;2.27;;
297;SDS011;133;49.626;9.680;2023-07-30T00:53:21;4.63;;;2.40;;
297;SDS011;133;49.626;9.680;2023-07-30T00:55:48;2.70;;;2.50;;
297;SDS011;133;49.626;9.680;2023-07-30T00:58:14;2.60;;;2.40;;
297;SDS011;133;49.626;9.680;2023-07-30T01:00:41;5.60;;;2.53;;
297;SDS011;133;49.626;9.680;2023-07-30T01:03:07;3.17;;;2.60;;
297;SDS011;133;49.626;9.680;2023-07-30T01:05:33;2.40;;;2.20;;
297;SDS011;133;49.626;9.680;2023-07-30T01:07:59;3.93;;;2.80;;
297;SDS011;133;49.626;9.680;2023-07-30T01:10:24;6.47;;;2.60;;
297;SDS011;133;49.626;9.680;2023-07-30T01:12:50;5.20;;;3.10;;
297;SDS011;133;49.626;9.680;2023-07-30T01:15:17;5.87;;;2.43;;
297;SDS011;133;49.626;9.680;2023-07-30T01:17:43;2.30;;;2.10;;
297;SDS011;133;49.626;9.680;2023-07-30T01:20:10;3.33;;;3.13;;
297;SDS011;133;49.626;9.680;2023-07-30T01:22:36;3.60;;;3.40;;
297;SDS011;133;49.626;9.680;2023-07-30T01:25:01;4.40;;;3.30;;
297;SDS011;133;49.626;9.680;2023-07-30T01:27:28;3.70;;;3.53;;
297;SDS011;133;49.626;9.680;2023-07-30T01:32:28;6.63;;;4.33;;
297;SDS011;133;49.626;9.680;2023-07-30T01:34:55;4.90;;;4.00;;
297;SDS011;133;49.626;9.680;2023-07-30T01:37:22;8.63;;;4.27;;
297;SDS011;133;49.626;9.680;2023-07-30T01:39:50;6.13;;;5.00;;
297;SDS011;133;49.626;9.680;2023-07-30T01:42:16;4.80;;;4.50;;
297;SDS011;133;49.626;9.680;2023-07-30T01:44:42;9.47;;;5.20;;
297;SDS011;133;49.626;9.680;2023-07-30T01:47:08;5.53;;;4.80;;
297;SDS011;133;49.626;9.680;2023-07-30T01:49:34;6.20;;;5.90;;
297;SDS011;133;49.626;9.680;2023-07-30T01:51:59;5.43;;;5.10;;
297;SDS011;133;49.626;9.680;2023-07-30T01:54:25;8.23;;;5.50;;
297;SDS011;133;49.626;9.680;2023-07-30T01:56:51;7.90;;;5.30;;
297;SDS011;133;49.626;9.680;2023-07-30T01:59:17;5.40;;;5.10;;
297;SDS011;133;49.626;9.680;2023-07-30T02:01:43;7.90;;;5.57;;
297;SDS011;133;49.626;9.680;2023-07-30T02:04:09;6.63;;;5.30;;
297;SDS011;133;49.626;9.680;2023-07-30T02:06:35;8.50;;;5.67;;
297;SDS011;133;49.626;9.680;2023-07-30T02:09:01;4.80;;;4.50;;
297;SDS011;133;49.626;9.680;2023-07-30T02:11:26;5.77;;;5.23;;
297;SDS011;133;49.626;9.680;2023-07-30T02:13:53;7.50;;;4.67;;
297;SDS011;133;49.626;9.680;2023-07-30T02:16:19;5.50;;;4.70;;
297;SDS011;133;49.626;9.680;2023-07-30T02:18:44;5.37;;;4.87;;
297;SDS011;133;49.626;9.680;2023-07-30T02:21:10;7.20;;;5.30;;
297;SDS011;133;49.626;9.680;2023-07-30T02:23:36;7.43;;;5.00;;
297;SDS011;133;49.626;9.680;2023-07-30T02:26:01;5.93;;;5.63;;
297;SDS011;133;49.626;9.680;2023-07-30T02:28:27;7.20;;;6.13;;
297;SDS011;133;49.626;9.680;2023-07-30T02:30:52;8.00;;;6.67;;
297;SDS011;133;49.626;9.680;2023-07-30T02:33:18;6.10;;;5.67;;
297;SDS011;133;49.626;9.680;2023-07-30T02:35:44;6.70;;;6.30;;
297;SDS011;133;49.626;9.680;2023-07-30T02:38:09;6.43;;;6.03;;
297;SDS011;133;49.626;9.680;2023-07-30T02:40:35;7.40;;;7.00;;
297;SDS011;133;49.626;9.680;2023-07-30T02:43:00;7.53;;;6.57;;
297;SDS011;133;49.626;9.680;2023-07-30T02:45:26;7.13;;;6.73;;
297;SDS011;133;49.626;9.680;2023-07-30T02:47:52;7.03;;;6.10;;
297;SDS011;133;49.626;9.680;2023-07-30T02:50:17;11.13;;;5.90;;
297;SDS011;133;49.626;9.680;2023-07-30T02:52:43;6.60;;;6.20;;
297;SDS011;133;49.626;9.680;2023-07-30T02:55:09;6.80;;;6.40;;
297;SDS011;133;49.626;9.680;2023-07-30T02:57:34;5.73;;;5.40;;
297;SDS011;133;49.626;9.680;2023-07-30T03:00:00;6.40;;;6.00;;
297;SDS011;133;49.626;9.680;2023-07-30T03:02:26;6.30;;;5.50;;
297;SDS011;133;49.626;9.680;2023-07-30T03:04:52;6.97;;;6.57;;
297;SDS011;133;49.626;9.680;2023-07-30T03:07:17;7.10;;;6.70;;
297;SDS011;133;49.626;9.680;2023-07-30T03:09:44;5.90;;;5.60;;
297;SDS011;133;49.626;9.680;2023-07-30T03:12:10;6.93;;;6.53;;
297;SDS011;133;49.626;9.680;2023-07-30T03:14:36;5.47;;;5.17;;
297;SDS011;133;49.626;9.680;2023-07-30T03:17:01;6.03;;;5.73;;
297;SDS011;133;49.626;9.680;2023-07-30T03:19:27;5.87;;;5.57;;
297;SDS011;133;49.626;9.680;2023-07-30T03:21:53;6.23;;;5.60;;
297;SDS011;133;49.626;9.680;2023-07-30T03:24:18;6.77;;;6.37;;
297;SDS011;133;49.626;9.680;2023-07-30T03:26:44;5.53;;;5.30;;
297;SDS011;133;49.626;9.680;2023-07-30T03:29:09;7.47;;;5.90;;
297;SDS011;133;49.626;9.680;2023-07-30T03:31:35;5.53;;;5.10;;
297;SDS011;133;49.626;9.680;2023-07-30T03:34:01;5.77;;;5.47;;
297;SDS011;133;49.626;9.680;2023-07-30T03:36:26;6.33;;;5.97;;
297;SDS011;133;49.626;9.680;2023-07-30T03:38:52;6.00;;;5.30;;
297;SDS011;133;49.626;9.680;2023-07-30T03:41:18;5.70;;;5.40;;
297;SDS011;133;49.626;9.680;2023-07-30T03:43:43;5.43;;;5.13;;
297;SDS011;133;49.626;9.680;2023-07-30T03:46:09;5.33;;;5.03;;
297;SDS011;133;49.626;9.680;2023-07-30T03:48:35;8.67;;;6.13;;
297;SDS011;133;49.626;9.680;2023-07-30T03:51:01;6.73;;;5.60;;
297;SDS011;133;49.626;9.680;2023-07-30T03:53:27;5.80;;;5.50;;
297;SDS011;133;49.626;9.680;2023-07-30T03:55:53;5.70;;;5.40;;
297;SDS011;133;49.626;9.680;2023-07-30T03:58:19;5.30;;;5.00;;
297;SDS011;133;49.626;9.680;2023-07-30T04:00:45;9.03;;;6.10;;
297;SDS011;133;49.626;9.680;2023-07-30T04:03:10;5.80;;;5.50;;
297;SDS011;133;49.626;9.680;2023-07-30T04:05:36;5.77;;;5.43;;
297;SDS011;133;49.626;9.680;2023-07-30T04:08:02;5.90;;;5.60;;
297;SDS011;133;49.626;9.680;2023-07-30T04:10:27;6.03;;;5.73;;
297;SDS011;133;49.626;9.680;2023-07-30T04:12:53;5.23;;;4.93;;
297;SDS011;133;49.626;9.680;2023-07-30T04:15:19;5.47;;;5.17;;
297;SDS011;133;49.626;9.680;2023-07-30T04:17:44;5.73;;;5.43;;
297;SDS011;133;49.626;9.680;2023-07-30T04:20:10;6.07;;;5.80;;
297;SDS011;133;49.626;9.680;2023-07-30T04:22:36;6.30;;;5.57;;
297;SDS011;133;49.626;9.680;2023-07-30T04:25:02;5.77;;;5.47;;
297;SDS011;133;49.626;9.680;2023-07-30T04:27:28;5.57;;;5.27;;
297;SDS011;133;49.626;9.680;2023-07-30T04:29:53;9.43;;;5.30;;
297;SDS011;133;49.626;9.680;2023-07-30T04:32:19;5.20;;;4.90;;
297;SDS011;133;49.626;9.680;2023-07-30T04:34:44;5.90;;;5.60;;
297;SDS011;133;49.626;9.680;2023-07-30T04:37:10;7.10;;;5.77;;
297;SDS011;133;49.626;9.680;2023-07-30T04:39:36;7.23;;;5.80;;
297;SDS011;133;49.626;9.680;2023-07-30T04:42:02;5.90;;;5.60;;
297;SDS011;133;49.626;9.680;2023-07-30T04:44:28;6.13;;;5.83;;
297;SDS011;133;49.626;9.680;2023-07-30T04:46:53;6.10;;;5.80;;
297;SDS011;133;49.626;9.680;2023-07-30T04:49:19;5.90;;;5.57;;
297;SDS011;133;49.626;9.680;2023-07-30T04:51:45;9.83;;;6.23;;
297;SDS011;133;49.626;9.680;2023-07-30T04:54:11;5.63;;;5.33;;
297;SDS011;133;49.626;9.680;2023-07-30T04:56:37;5.57;;;5.27;;
297;SDS011;133;49.626;9.680;2023-07-30T04:59:02;7.17;;;5.07;;
297;SDS011;133;49.626;9.680;2023-07-30T05:01:28;6.73;;;5.27;;
297;SDS011;133;49.626;9.680;2023-07-30T05:03:54;5.70;;;5.40;;
297;SDS011;133;49.626;9.680;2023-07-30T05:06:20;5.37;;;5.07;;
297;SDS011;133;49.626;9.680;2023-07-30T05:08:46;5.00;;;4.70;;
297;SDS011;133;49.626;9.680;2023-07-30T05:11:11;5.37;;;5.07;;
297;SDS011;133;49.626;9.680;2023-07-30T05:13:37;5.83;;;5.53;;
297;SDS011;133;49.626;9.680;2023-07-30T05:16:03;5.30;;;5.00;;
297;SDS011;133;49.626;9.680;2023-07-30T05:18:28;6.20;;;5.90;;
297;SDS011;133;49.626;9.680;2023-07-30T05:20:54;4.70;;;4.40;;
297;SDS011;133;49.626;9.680;2023-07-30T05:23:20;5.60;;;5.30;;
297;SDS011;133;49.626;9.680;2023-07-30T05:25:48;6.37;;;4.60;;
297;SDS011;133;49.626;9.680;2023-07-30T05:28:14;5.67;;;5.37;;
297;SDS011;133;49.626;9.680;2023-07-30T05:30:40;5.60;;;5.20;;
297;SDS011;133;49.626;9.680;2023-07-30T05:33:05;5.33;;;5.03;;
297;SDS011;133;49.626;9.680;2023-07-30T05:35:31;5.00;;;4.70;;
297;SDS011;133;49.626;9.680;2023-07-30T05:37:56;5.00;;;4.47;;
297;SDS011;133;49.626;9.680;2023-07-30T05:40:22;5.50;;;5.20;;
297;SDS011;133;49.626;9.680;2023-07-30T05:42:48;6.63;;;5.93;;
297;SDS011;133;49.626;9.680;2023-07-30T05:45:14;5.00;;;4.70;;
297;SDS011;133;49.626;9.680;2023-07-30T05:47:39;5.13;;;4.83;;
297;SDS011;133;49.626;9.680;2023-07-30T05:50:06;6.00;;;5.70;;
297;SDS011;133;49.626;9.680;2023-07-30T05:52:32;5.83;;;5.30;;
297;SDS011;133;49.626;9.680;2023-07-30T05:54:58;7.00;;;5.50;;
297;SDS011;133;49.626;9.680;2023-07-30T05:57:23;6.70;;;5.87;;
297;SDS011;133;49.626;9.680;2023-07-30T05:59:49;5.03;;;4.57;;
297;SDS011;133;49.626;9.680;2023-07-30T06:02:15;5.30;;;5.00;;
297;SDS011;133;49.626;9.680;2023-07-30T06:04:41;5.20;;;4.83;;
297;SDS011;133;49.626;9.680;2023-07-30T06:07:06;5.20;;;4.90;;
297;SDS011;133;49.626;9.680;2023-07-30T06:09:32;5.03;;;4.73;;
297;SDS011;133;49.626;9.680;2023-07-30T06:11:58;5.07;;;4.80;;
297;SDS011;133;49.626;9.680;2023-07-30T06:14:24;5.77;;;5.10;;
297;SDS011;133;49.626;9.680;2023-07-30T06:16:51;4.70;;;4.40;;
297;SDS011;133;49.626;9.680;2023-07-30T06:19:17;6.47;;;5.43;;
297;SDS011;133;49.626;9.680;2023-07-30T06:21:43;4.70;;;4.40;;
297;SDS011;133;49.626;9.680;2023-07-30T06:24:08;5.13;;;4.83;;
297;SDS011;133;49.626;9.680;2023-07-30T06:26:34;4.90;;;4.60;;
297;SDS011;133;49.626;9.680;2023-07-30T06:29:00;7.67;;;5.10;;
297;SDS011;133;49.626;9.680;2023-07-30T06:31:26;6.00;;;5.70;;
297;SDS011;133;49.626;9.680;2023-07-30T06:33:51;4.40;;;4.10;;
297;SDS011;133;49.626;9.680;2023-07-30T06:36:17;5.20;;;4.90;;
297;SDS011;133;49.626;9.680;2023-07-30T06:38:43;8.37;;;4.90;;
297;SDS011;133;49.626;9.680;2023-07-30T06:41:08;4.70;;;4.40;;
297;SDS011;133;49.626;9.680;2023-07-30T06:43:34;5.80;;;5.00;;
297;SDS011;133;49.626;9.680;2023-07-30T06:45:59;4.80;;;4.33;;
297;SDS011;133;49.626;9.680;2023-07-30T06:48:25;4.80;;;4.50;;
297;SDS011;133;49.626;9.680;2023-07-30T06:50:51;4.93;;;4.63;;
297;SDS011;133;49.626;9.680;2023-07-30T06:53:16;5.37;;;5.07;;
297;SDS011;133;49.626;9.680;2023-07-30T06:55:42;4.70;;;4.40;;
297;SDS011;133;49.626;9.680;2023-07-30T06:58:08;4.17;;;3.93;;
297;SDS011;133;49.626;9.680;2023-07-30T07:00:34;5.43;;;4.93;;
297;SDS011;133;49.626;9.680;2023-07-30T07:03:00;5.37;;;5.07;;
297;SDS011;133;49.626;9.680;2023-07-30T07:05:26;4.57;;;4.27;;
297;SDS011;133;49.626;9.680;2023-07-30T07:07:52;4.30;;;4.00;;
297;SDS011;133;49.626;9.680;2023-07-30T07:10:17;5.20;;;4.20;;
297;SDS011;133;49.626;9.680;2023-07-30T07:12:43;5.33;;;4.20;;
297;SDS011;133;49.626;9.680;2023-07-30T07:15:09;4.40;;;4.00;;
297;SDS011;133;49.626;9.680;2023-07-30T07:17:34;5.00;;;4.70;;
297;SDS011;133;49.626;9.680;2023-07-30T07:20:00;4.90;;;4.60;;
297;SDS011;133;49.626;9.680;2023-07-30T07:22:26;4.70;;;4.40;;
297;SDS011;133;49.626;9.680;2023-07-30T07:24:52;7.37;;;4.30;;
297;SDS011;133;49.626;9.680;2023-07-30T07:27:20;4.63;;;4.33;;
297;SDS011;133;49.626;9.680;2023-07-30T07:29:48;4.80;;;4.50;;
297;SDS011;133;49.626;9.680;2023-07-30T07:32:13;4.27;;;4.03;;
297;SDS011;133;49.626;9.680;2023-07-30T07:34:39;4.57;;;4.27;;
297;SDS011;133;49.626;9.680;2023-07-30T07:37:05;4.17;;;3.93;;
297;SDS011;133;49.626;9.680;2023-07-30T07:39:32;3.80;;;3.60;;
297;SDS011;133;49.626;9.680;2023-07-30T07:41:58;3.60;;;3.37;;
297;SDS011;133;49.626;9.680;2023-07-30T07:44:24;3.80;;;3.60;;
297;SDS011;133;49.626;9.680;2023-07-30T07:46:49;3.93;;;3.73;;
297;SDS011;133;49.626;9.680;2023-07-30T07:49:15;4.30;;;4.00;;
297;SDS011;133;49.626;9.680;2023-07-30T07:51:41;4.03;;;3.40;;
297;SDS011;133;49.626;9.680;2023-07-30T07:54:06;3.67;;;3.27;;
297;SDS011;133;49.626;9.680;2023-07-30T07:56:32;4.13;;;3.80;;
297;SDS011;133;49.626;9.680;2023-07-30T07:58:58;3.20;;;3.00;;
297;SDS011;133;49.626;9.680;2023-07-30T08:01:23;3.00;;;2.80;;
297;SDS011;133;49.626;9.680;2023-07-30T08:03:49;4.87;;;3.00;;
297;SDS011;133;49.626;9.680;2023-07-30T08:06:15;4.90;;;2.93;;
297;SDS011;133;49.626;9.680;2023-07-30T08:08:40;3.03;;;2.83;;
297;SDS011;133;49.626;9.680;2023-07-30T08:11:06;2.80;;;2.60;;
297;SDS011;133;49.626;9.680;2023-07-30T08:13:33;2.67;;;2.47;;
297;SDS011;133;49.626;9.680;2023-07-30T08:15:59;2.93;;;2.47;;
297;SDS011;133;49.626;9.680;2023-07-30T08:18:41;2.53;;;2.33;;
297;SDS011;133;49.626;9.680;2023-07-30T08:21:07;2.47;;;2.27;;
297;SDS011;133;49.626;9.680;2023-07-30T08:23:34;3.00;;;2.80;;
297;SDS011;133;49.626;9.680;2023-07-30T08:25:59;2.47;;;2.27;;
297;SDS011;133;49.626;9.680;2023-07-30T08:28:25;3.07;;;2.87;;
297;SDS011;133;49.626;9.680;2023-07-30T08:30:51;3.13;;;2.70;;
297;SDS011;133;49.626;9.680;2023-07-30T08:33:16;2.90;;;2.70;;
297;SDS011;133;49.626;9.680;2023-07-30T08:35:42;2.80;;;2.63;;
297;SDS011;133;49.626;9.680;2023-07-30T08:38:08;2.80;;;2.60;;
297;SDS011;133;49.626;9.680;2023-07-30T08:40:33;2.93;;;2.73;;
297;SDS011;133;49.626;9.680;2023-07-30T08:43:02;2.60;;;2.40;;
297;SDS011;133;49.626;9.680;2023-07-30T08:45:28;3.03;;;2.83;;
297;SDS011;133;49.626;9.680;2023-07-30T08:47:55;3.00;;;2.80;;
297;SDS011;133;49.626;9.680;2023-07-30T08:50:24;3.17;;;3.00;;
297;SDS011;133;49.626;9.680;2023-07-30T08:52:52;3.20;;;3.00;;
297;SDS011;133;49.626;9.680;2023-07-30T08:55:26;3.47;;;3.27;;
297;SDS011;133;49.626;9.680;2023-07-30T08:57:58;3.77;;;3.60;;
297;SDS011;133;49.626;9.680;2023-07-30T09:00:27;3.90;;;3.70;;
297;SDS011;133;49.626;9.680;2023-07-30T09:02:58;3.47;;;3.27;;
297;SDS011;133;49.626;9.680;2023-07-30T09:05:25;7.20;;;3.27;;
297;SDS011;133;49.626;9.680;2023-07-30T09:07:55;4.90;;;3.50;;
297;SDS011;133;49.626;9.680;2023-07-30T09:10:21;5.27;;;4.30;;
297;SDS011;133;49.626;9.680;2023-07-30T09:12:51;4.87;;;3.73;;
297;SDS011;133;49.626;9.680;2023-07-30T09:15:42;4.00;;;3.80;;
297;SDS011;133;49.626;9.680;2023-07-30T09:18:07;3.50;;;3.30;;
297;SDS011;133;49.626;9.680;2023-07-30T09:20:37;4.07;;;3.87;;
297;SDS011;133;49.626;9.680;2023-07-30T09:23:04;4.23;;;3.97;;
297;SDS011;133;49.626;9.680;2023-07-30T09:25:31;4.00;;;3.83;;
297;SDS011;133;49.626;9.680;2023-07-30T09:27:56;4.00;;;3.80;;
297;SDS011;133;49.626;9.680;2023-07-30T09:30:24;5.67;;;3.70;;
297;SDS011;133;49.626;9.680;2023-07-30T09:32:52;3.80;;;3.60;;
297;SDS011;133;49.626;9.680;2023-07-30T09:35:19;3.57;;;3.37;;
297;SDS011;133;49.626;9.680;2023-07-30T09:37:45;3.70;;;2.83;;
297;SDS011;133;49.626;9.680;2023-07-30T09:40:39;4.20;;;3.60;;
297;SDS011;133;49.626;9.680;2023-07-30T09:43:04;3.40;;;3.20;;
297;SDS011;133;49.626;9.680;2023-07-30T09:45:33;3.13;;;2.97;;
297;SDS011;133;49.626;9.680;2023-07-30T09:48:01;3.07;;;2.87;;
297;SDS011;133;49.626;9.680;2023-07-30T09:50:30;2.70;;;2.57;;
297;SDS011;133;49.626;9.680;2023-07-30T09:52:58;2.93;;;2.73;;
297;SDS011;133;49.626;9.680;2023-07-30T09:55:25;2.60;;;2.40;;
297;SDS011;133;49.626;9.680;2023-07-30T09:57:51;2.97;;;2.80;;
297;SDS011;133;49.626;9.680;2023-07-30T10:00:18;3.07;;;2.87;;
297;SDS011;133;49.626;9.680;2023-07-30T10:02:49;3.27;;;2.80;;
297;SDS011;133;49.626;9.680;2023-07-30T10:05:18;2.67;;;2.47;;
297;SDS011;133;49.626;9.680;2023-07-30T10:07:53;3.40;;;3.20;;
297;SDS011;133;49.626;9.680;2023-07-30T10:10:24;3.13;;;2.90;;
297;SDS011;133;49.626;9.680;2023-07-30T10:12:51;3.10;;;2.90;;
297;SDS011;133;49.626;9.680;2023-07-30T10:15:19;4.30;;;4.00;;
297;SDS011;133;49.626;9.680;2023-07-30T10:17:48;5.23;;;3.20;;
297;SDS011;133;49.626;9.680;2023-07-30T10:20:25;3.97;;;3.37;;
297;SDS011;133;49.626;9.680;2023-07-30T10:22:54;3.50;;;3.30;;
297;SDS011;133;49.626;9.680;2023-07-30T10:25:29;3.93;;;3.73;;
297;SDS011;133;49.626;9.680;2023-07-30T10:28:06;5.17;;;3.60;;
297;SDS011;133;49.626;9.680;2023-07-30T10:30:32;3.60;;;3.40;;
297;SDS011;133;49.626;9.680;2023-07-30T10:33:00;4.90;;;3.70;;
297;SDS011;133;49.626;9.680;2023-07-30T10:38:18;6.37;;;3.50;;
297;SDS011;133;49.626;9.680;2023-07-30T10:41:08;3.63;;;3.50;;
297;SDS011;133;49.626;9.680;2023-07-30T10:43:36;3.60;;;3.40;;
297;SDS011;133;49.626;9.680;2023-07-30T10:46:07;5.03;;;4.43;;
297;SDS011;133;49.626;9.680;2023-07-30T10:48:38;3.93;;;3.73;;
297;SDS011;133;49.626;9.680;2023-07-30T10:51:05;5.27;;;3.90;;
297;SDS011;133;49.626;9.680;2023-07-30T10:53:33;5.90;;;3.33;;
297;SDS011;133;49.626;9.680;2023-07-30T10:56:02;3.47;;;3.27;;
297;SDS011;133;49.626;9.680;2023-07-30T10:58:35;4.07;;;3.70;;
297;SDS011;133;49.626;9.680;2023-07-30T11:01:02;3.47;;;3.23;;
297;SDS011;133;49.626;9.680;2023-07-30T11:03:29;3.50;;;3.30;;
297;SDS011;133;49.626;9.680;2023-07-30T11:05:56;3.73;;;3.20;;
297;SDS011;133;49.626;9.680;2023-07-30T11:11:20;3.73;;;3.30;;
297;SDS011;133;49.626;9.680;2023-07-30T11:13:46;5.23;;;3.53;;
297;SDS011;133;49.626;9.680;2023-07-30T11:16:14;3.60;;;3.40;;
297;SDS011;133;49.626;9.680;2023-07-30T11:18:41;3.90;;;3.40;;
297;SDS011;133;49.626;9.680;2023-07-30T11:23:35;3.10;;;2.90;;
297;SDS011;133;49.626;9.680;2023-07-30T11:26:02;3.70;;;3.27;;
297;SDS011;133;49.626;9.680;2023-07-30T11:33:59;4.20;;;3.13;;
297;SDS011;133;49.626;9.680;2023-07-30T11:36:25;7.83;;;4.60;;
297;SDS011;133;49.626;9.680;2023-07-30T11:38:52;3.30;;;3.17;;
297;SDS011;133;49.626;9.680;2023-07-30T11:41:18;3.10;;;2.90;;
297;SDS011;133;49.626;9.680;2023-07-30T11:43:44;4.80;;;3.27;;
297;SDS011;133;49.626;9.680;2023-07-30T11:46:11;5.50;;;3.17;;
297;SDS011;133;49.626;9.680;2023-07-30T11:48:39;4.30;;;3.20;;
297;SDS011;133;49.626;9.680;2023-07-30T11:51:28;4.83;;;3.30;;
297;SDS011;133;49.626;9.680;2023-07-30T11:56:27;3.10;;;2.90;;
297;SDS011;133;49.626;9.680;2023-07-30T11:59:01;2.93;;;2.73;;
297;SDS011;133;49.626;9.680;2023-07-30T12:01:30;2.80;;;2.50;;
297;SDS011;133;49.626;9.680;2023-07-30T12:04:00;2.93;;;2.60;;
297;SDS011;133;49.626;9.680;2023-07-30T12:07:00;6.03;;;2.50;;
297;SDS011;133;49.626;9.680;2023-07-30T12:09:20;2.70;;;2.50;;
297;SDS011;133;49.626;9.680;2023-07-30T12:14:29;2.70;;;2.50;;
297;SDS011;133;49.626;9.680;2023-07-30T12:17:13;2.63;;;2.43;;
297;SDS011;133;49.626;9.680;2023-07-30T12:19:42;3.43;;;2.50;;
297;SDS011;133;49.626;9.680;2023-07-30T12:22:07;2.30;;;2.10;;
297;SDS011;133;49.626;9.680;2023-07-30T12:24:33;2.67;;;2.43;;
297;SDS011;133;49.626;9.680;2023-07-30T12:26:59;2.57;;;2.30;;
297;SDS011;133;49.626;9.680;2023-07-30T12:29:25;4.50;;;2.40;;
297;SDS011;133;49.626;9.680;2023-07-30T12:31:51;2.30;;;2.10;;
297;SDS011;133;49.626;9.680;2023-07-30T12:34:18;2.20;;;2.00;;
297;SDS011;133;49.626;9.680;2023-07-30T12:36:45;2.30;;;2.10;;
297;SDS011;133;49.626;9.680;2023-07-30T12:39:13;1.80;;;1.70;;
297;SDS011;133;49.626;9.680;2023-07-30T12:41:39;2.40;;;2.20;;
297;SDS011;133;49.626;9.680;2023-07-30T12:44:05;1.80;;;1.70;;
297;SDS011;133;49.626;9.680;2023-07-30T12:46:34;2.53;;;2.13;;
297;SDS011;133;49.626;9.680;2023-07-30T12:49:03;1.90;;;1.80;;
297;SDS011;133;49.626;9.680;2023-07-30T12:51:32;2.10;;;1.93;;
297;SDS011;133;49.626;9.680;2023-07-30T12:53:58;3.63;;;2.30;;
297;SDS011;133;49.626;9.680;2023-07-30T12:56:24;2.20;;;2.00;;
297;SDS011;133;49.626;9.680;2023-07-30T12:58:50;2.20;;;2.00;;
297;SDS011;133;49.626;9.680;2023-07-30T13:01:15;2.30;;;2.10;;
297;SDS011;133;49.626;9.680;2023-07-30T13:03:41;2.20;;;2.00;;
297;SDS011;133;49.626;9.680;2023-07-30T13:06:10;2.37;;;2.20;;
297;SDS011;133;49.626;9.680;2023-07-30T13:08:38;2.47;;;2.27;;
297;SDS011;133;49.626;9.680;2023-07-30T13:11:11;2.73;;;2.50;;
297;SDS011;133;49.626;9.680;2023-07-30T13:13:36;3.60;;;2.20;;
297;SDS011;133;49.626;9.680;2023-07-30T13:16:02;2.40;;;2.20;;
297;SDS011;133;49.626;9.680;2023-07-30T13:18:28;2.50;;;2.30;;
297;SDS011;133;49.626;9.680;2023-07-30T13:20:54;7.20;;;2.70;;
297;SDS011;133;49.626;9.680;2023-07-30T13:23:20;2.57;;;2.30;;
297;SDS011;133;49.626;9.680;2023-07-30T13:25:45;2.87;;;2.67;;
297;SDS011;133;49.626;9.680;2023-07-30T13:28:12;4.10;;;2.50;;
297;SDS011;133;49.626;9.680;2023-07-30T13:30:37;4.60;;;2.60;;
297;SDS011;133;49.626;9.680;2023-07-30T13:33:03;3.27;;;2.77;;
297;SDS011;133;49.626;9.680;2023-07-30T13:35:29;3.67;;;2.57;;
297;SDS011;133;49.626;9.680;2023-07-30T13:37:54;3.90;;;2.50;;
297;SDS011;133;49.626;9.680;2023-07-30T13:40:20;2.60;;;2.40;;
297;SDS011;133;49.626;9.680;2023-07-30T13:42:47;3.83;;;2.70;;
297;SDS011;133;49.626;9.680;2023-07-30T13:45:12;3.80;;;2.60;;
297;SDS011;133;49.626;9.680;2023-07-30T13:47:38;4.30;;;2.50;;
297;SDS011;133;49.626;9.680;2023-07-30T13:50:05;4.40;;;2.60;;
297;SDS011;133;49.626;9.680;2023-07-30T13:52:32;7.33;;;2.90;;
297;SDS011;133;49.626;9.680;2023-07-30T13:54:57;4.73;;;2.70;;
297;SDS011;133;49.626;9.680;2023-07-30T13:57:23;3.43;;;2.60;;
297;SDS011;133;49.626;9.680;2023-07-30T13:59:53;3.00;;;2.30;;
297;SDS011;133;49.626;9.680;2023-07-30T14:02:18;2.90;;;2.53;;
297;SDS011;133;49.626;9.680;2023-07-30T14:04:44;5.77;;;2.83;;
297;SDS011;133;49.626;9.680;2023-07-30T14:07:10;4.10;;;2.83;;
297;SDS011;133;49.626;9.680;2023-07-30T14:09:36;2.60;;;2.47;;
297;SDS011;133;49.626;9.680;2023-07-30T14:12:02;2.80;;;2.50;;
297;SDS011;133;49.626;9.680;2023-07-30T14:14:28;3.93;;;2.63;;
297;SDS011;133;49.626;9.680;2023-07-30T14:16:54;2.67;;;2.47;;
297;SDS011;133;49.626;9.680;2023-07-30T14:19:20;4.63;;;2.60;;
297;SDS011;133;49.626;9.680;2023-07-30T14:21:46;3.10;;;2.50;;
297;SDS011;133;49.626;9.680;2023-07-30T14:24:11;7.23;;;3.20;;
297;SDS011;133;49.626;9.680;2023-07-30T14:26:37;3.93;;;2.40;;
297;SDS011;133;49.626;9.680;2023-07-30T14:29:03;4.93;;;2.67;;
297;SDS011;133;49.626;9.680;2023-07-30T14:31:38;4.27;;;2.60;;
297;SDS011;133;49.626;9.680;2023-07-30T14:34:04;7.97;;;2.80;;
297;SDS011;133;49.626;9.680;2023-07-30T14:36:29;2.57;;;2.40;;
297;SDS011;133;49.626;9.680;2023-07-30T14:38:55;3.27;;;2.40;;
297;SDS011;133;49.626;9.680;2023-07-30T14:41:21;7.70;;;2.97;;
297;SDS011;133;49.626;9.680;2023-07-30T14:43:46;3.80;;;2.60;;
297;SDS011;133;49.626;9.680;2023-07-30T14:46:12;2.80;;;2.60;;
297;SDS011;133;49.626;9.680;2023-07-30T14:48:42;2.60;;;2.40;;
297;SDS011;133;49.626;9.680;2023-07-30T14:51:08;8.33;;;2.87;;
297;SDS011;133;49.626;9.680;2023-07-30T14:53:35;4.20;;;2.53;;
297;SDS011;133;49.626;9.680;2023-07-30T14:56:01;3.97;;;2.60;;
297;SDS011;133;49.626;9.680;2023-07-30T14:58:27;6.13;;;3.47;;
297;SDS011;133;49.626;9.680;2023-07-30T15:00:53;4.03;;;2.47;;
297;SDS011;133;49.626;9.680;2023-07-30T15:03:18;4.00;;;2.37;;
297;SDS011;133;49.626;9.680;2023-07-30T15:05:44;4.77;;;2.30;;
297;SDS011;133;49.626;9.680;2023-07-30T15:08:10;4.93;;;2.40;;
297;SDS011;133;49.626;9.680;2023-07-30T15:10:36;4.00;;;2.53;;
297;SDS011;133;49.626;9.680;2023-07-30T15:13:02;3.90;;;2.50;;
297;SDS011;133;49.626;9.680;2023-07-30T15:15:28;3.40;;;2.67;;
297;SDS011;133;49.626;9.680;2023-07-30T15:17:53;2.60;;;2.20;;
297;SDS011;133;49.626;9.680;2023-07-30T15:20:19;6.77;;;2.83;;
297;SDS011;133;49.626;9.680;2023-07-30T15:22:45;4.90;;;2.70;;
297;SDS011;133;49.626;9.680;2023-07-30T15:25:11;6.47;;;2.60;;
297;SDS011;133;49.626;9.680;2023-07-30T15:27:36;2.63;;;2.43;;
297;SDS011;133;49.626;9.680;2023-07-30T15:30:03;4.30;;;2.70;;
297;SDS011;133;49.626;9.680;2023-07-30T15:32:30;4.87;;;2.83;;
297;SDS011;133;49.626;9.680;2023-07-30T15:34:55;5.73;;;2.63;;
297;SDS011;133;49.626;9.680;2023-07-30T15:37:21;5.40;;;2.60;;
297;SDS011;133;49.626;9.680;2023-07-30T15:39:48;3.53;;;2.67;;
297;SDS011;133;49.626;9.680;2023-07-30T15:42:13;3.23;;;2.80;;
297;SDS011;133;49.626;9.680;2023-07-30T15:44:39;5.30;;;2.77;;
297;SDS011;133;49.626;9.680;2023-07-30T15:47:05;5.60;;;2.50;;
297;SDS011;133;49.626;9.680;2023-07-30T15:49:30;4.60;;;2.60;;
297;SDS011;133;49.626;9.680;2023-07-30T15:51:57;2.80;;;2.60;;
297;SDS011;133;49.626;9.680;2023-07-30T15:54:35;5.37;;;2.70;;
297;SDS011;133;49.626;9.680;2023-07-30T15:57:02;3.80;;;2.67;;
297;SDS011;133;49.626;9.680;2023-07-30T15:59:31;4.53;;;2.23;;
297;SDS011;133;49.626;9.680;2023-07-30T16:01:57;3.13;;;2.53;;
297;SDS011;133;49.626;9.680;2023-07-30T16:04:23;9.20;;;2.67;;